Terminal Aerodrome Forecast
Issued by NWS

Home | Current Version | Previous Version | Text Only | Print | Product List | Glossary On
Versions: 1 2 3 4 5 6 7 8 9 10 11 12 13 14 15 16 17 18 19 20 21 22 23 24 25 26 27 28 29 30 31 32 33 34 35 36 37 38 39 40 41 42 43 44 45 46 47 48 49 50
000
FTUS44 KHGX 200655 AAB
TAFUTS
TAF AMD
KUTS 200655Z 2007/2106 13005KT P6SM SCT009 BKN014 OVC020
      TEMPO 2007/2009 2SM -RA BR BKN008
     FM200900 16007KT 6SM -RA BR OVC006
      TEMPO 2010/2014 VRB25KT 3SM TSRA BR BKN007 BKN013CB
     FM201600 10004KT 4SM SHRA VCTS BKN010CB
     FM202200 10006KT P6SM VCSH SCT020 BKN035 BKN120
     FM210300 15002KT P6SM BKN250=

USA.gov is the U.S. government's official web portal to all federal, state and local government web resources and services.